createdAt,value
2019-04-05T09:06:15.188Z,34.3140
2019-04-05T09:06:23.378Z,34.7107
2019-04-05T09:06:36.329Z,34.5093
2019-04-05T09:06:44.304Z,34.0149
2019-04-05T09:06:52.305Z,33.8135
2019-04-05T09:10:28.811Z,33.6792
2019-04-05T09:10:36.377Z,33.0994
2019-04-05T09:10:44.333Z,33.0017
2019-04-05T09:10:54.652Z,33.0994
2019-04-05T09:11:02.337Z,33.0017
2019-04-05T09:11:10.343Z,32.8979
2019-04-05T09:11:18.296Z,32.8979
2019-04-05T09:11:26.319Z,33.0017
2019-04-05T09:11:34.310Z,33.0017
2019-04-05T09:11:42.353Z,33.0017
2019-04-05T09:11:50.300Z,33.0017
2019-04-05T09:11:58.311Z,33.0017
2019-04-05T09:12:06.332Z,32.8979
2019-04-05T09:12:14.329Z,32.8979
2019-04-05T09:12:22.312Z,32.8003
2019-04-05T09:12:30.321Z,32.8003
2019-04-05T09:12:38.326Z,32.7026
2019-04-05T09:12:46.374Z,32.5989
2019-04-05T09:12:54.298Z,32.5989
2019-04-05T09:13:02.339Z,32.5012
2019-04-05T09:13:10.309Z,32.5012
2019-04-05T09:13:18.335Z,32.5012
2019-04-05T09:13:26.308Z,32.4829
2019-04-05T09:13:34.340Z,32.4829
2019-04-05T09:13:42.312Z,32.4829
2019-04-05T09:13:51.424Z,32.4829
2019-04-05T09:13:59.311Z,32.4829
2019-04-05T09:14:07.318Z,32.5867
2019-04-05T09:14:15.318Z,32.4829
2019-04-05T09:14:23.290Z,32.4829
2019-04-05T09:14:31.320Z,32.3853
2019-04-05T09:14:39.293Z,32.3853
2019-04-05T09:14:47.291Z,32.3853
2019-04-05T09:14:55.294Z,32.4829
2019-04-05T09:15:03.368Z,32.9834
2019-04-05T09:15:11.307Z,32.3853
2019-04-05T09:15:19.303Z,32.1838
2019-04-05T09:15:27.325Z,32.0862
2019-04-05T09:15:35.333Z,31.9885
2019-04-05T09:15:43.316Z,31.8909
2019-04-05T09:15:51.293Z,31.8909
2019-04-05T09:15:59.302Z,31.9885
2019-04-05T09:16:07.328Z,32.2876
2019-04-05T09:16:15.325Z,32.0862
2019-04-05T09:16:23.354Z,31.8909
2019-04-05T09:16:31.337Z,31.8909
2019-04-05T09:16:39.312Z,31.7871
2019-04-05T09:16:47.322Z,31.5918
2019-04-05T09:16:55.596Z,31.7749
2019-04-05T09:17:03.602Z,31.5735
2019-04-05T09:17:11.603Z,31.4758
2019-04-05T09:17:19.611Z,31.3721
2019-04-05T09:17:27.603Z,31.2744
2019-04-05T09:17:35.614Z,31.2744
2019-04-05T09:17:43.607Z,31.2744
2019-04-05T09:17:51.602Z,31.2744
2019-04-05T09:17:59.610Z,31.3721
2019-04-05T09:18:07.610Z,31.2744
2019-04-05T09:18:15.614Z,31.3721
2019-04-05T09:18:23.585Z,31.4758
2019-04-05T09:18:31.587Z,31.0730
2019-04-05T09:18:39.604Z,30.9753
2019-04-05T12:57:16.471Z,34.2957
2019-04-05T12:57:25.717Z,34.0820
2019-04-05T12:57:35.275Z,33.3801
2019-04-05T12:57:43.259Z,33.3801
2019-04-05T12:57:51.253Z,32.5867
2019-04-05T12:57:59.270Z,32.9834
2019-04-05T12:58:09.813Z,33.3008
2019-04-05T12:58:18.263Z,33.7952
2019-04-05T12:58:26.751Z,33.9966
2019-04-05T12:58:34.256Z,34.0942
2019-04-05T12:58:42.250Z,34.1980
2019-04-05T12:58:50.247Z,34.2957
2019-04-05T12:58:58.246Z,34.3933
2019-04-05T12:59:06.245Z,34.4971
2019-04-05T12:59:14.248Z,34.6130
2019-04-05T12:59:25.134Z,34.6130
2019-04-05T12:59:33.264Z,34.7107
2019-04-05T12:59:41.885Z,34.7107
2019-04-05T12:59:51.289Z,34.8083
2019-04-05T12:59:59.307Z,34.8083
